createdAt,value
2023-04-28T00:00:55.679Z,92882.00
2023-04-28T00:01:55.678Z,92882.00
2023-04-28T00:02:55.742Z,92884.00
2023-04-28T00:03:55.853Z,92884.00
2023-04-28T00:04:55.776Z,92882.00
2023-04-28T00:05:55.758Z,92882.00
2023-04-28T00:06:55.711Z,92886.00
2023-04-28T00:07:55.737Z,92884.00
2023-04-28T00:08:55.746Z,92886.00
2023-04-28T00:09:55.751Z,92882.00
2023-04-28T00:10:55.781Z,92882.00
2023-04-28T00:11:55.755Z,92878.00
2023-04-28T00:12:55.762Z,92876.00
2023-04-28T00:13:55.755Z,92874.00
2023-04-28T00:14:55.778Z,92870.00
2023-04-28T00:15:55.842Z,92868.00
2023-04-28T00:16:55.904Z,92868.00
2023-04-28T00:17:55.907Z,92868.00
2023-04-28T00:18:55.803Z,92868.00
2023-04-28T00:19:56.507Z,92872.00
2023-04-28T00:20:55.818Z,92874.00
2023-04-28T00:21:55.814Z,92878.00
2023-04-28T00:22:55.822Z,92876.00
2023-04-28T00:23:55.822Z,92878.00
2023-04-28T00:24:55.841Z,92878.00
2023-04-28T00:25:55.850Z,92876.00
2023-04-28T00:26:55.837Z,92874.00
2023-04-28T00:27:55.847Z,92868.00
2023-04-28T00:28:55.833Z,92872.00
2023-04-28T00:29:55.885Z,92874.00
2023-04-28T00:30:55.873Z,92874.00
2023-04-28T00:31:55.956Z,92874.00
2023-04-28T00:32:55.930Z,92878.00
2023-04-28T00:33:55.866Z,92880.00
2023-04-28T00:34:55.877Z,92878.00
2023-04-28T00:35:55.855Z,92876.00
2023-04-28T00:36:55.951Z,92872.00
2023-04-28T00:37:55.853Z,92872.00
2023-04-28T00:38:55.841Z,92866.00
2023-04-28T00:39:55.848Z,92866.00
2023-04-28T00:40:55.822Z,92866.00
2023-04-28T00:41:55.821Z,92866.00
2023-04-28T00:42:55.940Z,92866.00
2023-04-28T00:43:55.832Z,92862.00
2023-04-28T00:44:55.848Z,92858.00
2023-04-28T00:45:55.937Z,92858.00
2023-04-28T00:46:55.852Z,92854.00
2023-04-28T00:47:55.895Z,92856.00
2023-04-28T00:48:55.864Z,92856.00
2023-04-28T00:49:55.874Z,92856.00
2023-04-28T00:50:55.857Z,92858.00
2023-04-28T00:51:55.856Z,92856.00
2023-04-28T00:52:55.868Z,92856.00
2023-04-28T00:53:55.870Z,92854.00
2023-04-28T00:54:55.898Z,92847.00
2023-04-28T00:55:55.897Z,92845.00
2023-04-28T00:56:55.906Z,92845.00
2023-04-28T00:57:56.067Z,92843.00
2023-04-28T00:58:55.918Z,92839.00
2023-04-28T00:59:55.918Z,92837.00
2023-04-28T01:00:55.973Z,92835.00
2023-04-28T01:01:55.935Z,92829.00
2023-04-28T01:02:56.095Z,92829.00
2023-04-28T01:03:56.099Z,92827.00
2023-04-28T01:04:55.946Z,92825.00
2023-04-28T01:05:55.957Z,92823.00
2023-04-28T01:06:55.979Z,92823.00
2023-04-28T01:07:55.988Z,92821.00
2023-04-28T01:08:56.012Z,92823.00
2023-04-28T01:09:56.007Z,92827.00
2023-04-28T01:10:56.017Z,92827.00
2023-04-28T01:11:56.042Z,92833.00
2023-04-28T01:12:56.037Z,92835.00
2023-04-28T01:13:56.040Z,92835.00
2023-04-28T01:14:56.050Z,92829.00
2023-04-28T01:15:56.078Z,92827.00
2023-04-28T01:16:56.115Z,92823.00
2023-04-28T01:17:56.129Z,92819.00
2023-04-28T01:18:56.071Z,92817.00
2023-04-28T01:19:56.085Z,92817.00
2023-04-28T01:20:56.122Z,92817.00
2023-04-28T01:21:56.108Z,92814.00
2023-04-28T01:22:56.119Z,92812.00
2023-04-28T01:23:56.122Z,92812.00
2023-04-28T01:24:56.130Z,92808.00
2023-04-28T01:25:56.136Z,92808.00
2023-04-28T01:26:56.156Z,92812.00
2023-04-28T01:27:56.128Z,92812.00
2023-04-28T01:28:56.137Z,92812.00
2023-04-28T01:29:56.135Z,92810.00
2023-04-28T01:30:56.151Z,92808.00
2023-04-28T01:31:56.222Z,92810.00
2023-04-28T01:32:56.202Z,92812.00
2023-04-28T01:33:56.193Z,92812.00
2023-04-28T01:34:56.233Z,92814.00
2023-04-28T01:35:56.245Z,92817.00
2023-04-28T01:36:56.243Z,92819.00
2023-04-28T01:37:56.251Z,92816.00
2023-04-28T01:38:56.264Z,92819.00
2023-04-28T01:39:56.260Z,92817.00
2023-04-28T01:40:56.259Z,92814.00
2023-04-28T01:41:56.265Z,92812.00
2023-04-28T01:42:56.309Z,92817.00
2023-04-28T01:43:56.331Z,92817.00
2023-04-28T01:44:56.340Z,92821.00
2023-04-28T01:45:56.398Z,92819.00
2023-04-28T01:46:56.396Z,92817.00
2023-04-28T01:47:56.419Z,92812.00
2023-04-28T01:48:56.407Z,92810.00
2023-04-28T01:49:56.422Z,92806.00
2023-04-28T01:50:56.419Z,92804.00
2023-04-28T01:51:56.421Z,92804.00
2023-04-28T01:52:56.416Z,92802.00
2023-04-28T01:53:56.433Z,92804.00
2023-04-28T01:54:56.434Z,92804.00
2023-04-28T01:55:56.452Z,92804.00
2023-04-28T01:56:56.467Z,92804.00
2023-04-28T01:57:56.496Z,92802.00
2023-04-28T01:58:56.479Z,92804.00
2023-04-28T01:59:56.473Z,92802.00
2023-04-28T02:00:56.478Z,92802.00
2023-04-28T02:01:56.524Z,92800.00
2023-04-28T02:02:56.624Z,92794.00
2023-04-28T02:03:56.740Z,92796.00
2023-04-28T02:04:56.553Z,92796.00
2023-04-28T02:05:56.542Z,92792.00
2023-04-28T02:06:56.536Z,92796.00
2023-04-28T02:07:56.716Z,92792.00
2023-04-28T02:08:56.580Z,92786.00
2023-04-28T02:09:56.587Z,92780.00
2023-04-28T02:10:56.603Z,92780.00
2023-04-28T02:11:56.605Z,92778.00
2023-04-28T02:12:56.811Z,92778.00
2023-04-28T02:13:56.619Z,92782.00
2023-04-28T02:14:56.644Z,92786.00
2023-04-28T02:15:56.723Z,92784.00
2023-04-28T02:16:56.708Z,92784.00
2023-04-28T02:17:57.631Z,92784.00
2023-04-28T02:18:56.675Z,92784.00
2023-04-28T02:19:56.701Z,92782.00
2023-04-28T02:20:56.690Z,92782.00
2023-04-28T02:21:56.695Z,92780.00
2023-04-28T02:22:56.695Z,92782.00
2023-04-28T02:23:56.707Z,92786.00
2023-04-28T02:24:56.710Z,92784.00
2023-04-28T02:25:56.723Z,92786.00
2023-04-28T02:26:56.723Z,92786.00
2023-04-28T02:27:56.727Z,92786.00
2023-04-28T02:28:56.738Z,92786.00
2023-04-28T02:29:56.748Z,92786.00
2023-04-28T02:30:56.745Z,92786.00
2023-04-28T02:31:56.805Z,92788.00
2023-04-28T02:32:56.824Z,92788.00
2023-04-28T02:33:56.769Z,92788.00
2023-04-28T02:34:56.782Z,92790.00
2023-04-28T02:35:56.771Z,92792.00
2023-04-28T02:36:56.768Z,92792.00
2023-04-28T02:37:56.792Z,92794.00
2023-04-28T02:38:56.781Z,92794.00
2023-04-28T02:39:56.779Z,92794.00
2023-04-28T02:40:56.772Z,92792.00
2023-04-28T02:41:56.858Z,92792.00
2023-04-28T02:42:56.801Z,92786.00
2023-04-28T02:43:56.802Z,92790.00
2023-04-28T02:44:56.814Z,92786.00
2023-04-28T02:45:56.835Z,92786.00
2023-04-28T02:46:56.932Z,92782.00
2023-04-28T02:47:56.918Z,92778.00
2023-04-28T02:48:56.861Z,92774.00
2023-04-28T02:49:56.878Z,92770.00
2023-04-28T02:50:56.903Z,92767.00
2023-04-28T02:51:56.910Z,92761.00
2023-04-28T02:52:56.936Z,92759.00
2023-04-28T02:53:56.942Z,92759.00
2023-04-28T02:54:56.981Z,92757.00
2023-04-28T02:55:56.983Z,92755.00
2023-04-28T02:56:57.137Z,92751.00
2023-04-28T02:57:57.038Z,92749.00
2023-04-28T02:58:56.991Z,92745.00
2023-04-28T02:59:57.186Z,92743.00
2023-04-28T03:00:57.047Z,92743.00
2023-04-28T03:01:57.028Z,92745.00
2023-04-28T03:02:57.090Z,92745.00
2023-04-28T03:03:57.248Z,92745.00
2023-04-28T03:04:57.094Z,92745.00
2023-04-28T03:05:57.096Z,92745.00
2023-04-28T03:06:57.069Z,92745.00
2023-04-28T03:07:57.063Z,92743.00
2023-04-28T03:08:57.072Z,92739.00
2023-04-28T03:09:57.070Z,92743.00
2023-04-28T03:10:57.094Z,92741.00
2023-04-28T03:11:57.093Z,92741.00
2023-04-28T03:12:57.108Z,92741.00
2023-04-28T03:13:57.114Z,92749.00
2023-04-28T03:14:57.121Z,92747.00
2023-04-28T03:15:57.194Z,92739.00
2023-04-28T03:16:57.153Z,92741.00
2023-04-28T03:17:57.220Z,92737.00
2023-04-28T03:18:57.171Z,92731.00
2023-04-28T03:19:57.163Z,92733.00
2023-04-28T03:20:57.173Z,92731.00
2023-04-28T03:21:57.175Z,92725.00
2023-04-28T03:22:57.187Z,92723.00
2023-04-28T03:23:57.200Z,92723.00
2023-04-28T03:24:57.200Z,92729.00
2023-04-28T03:25:57.226Z,92729.00
2023-04-28T03:26:57.229Z,92727.00
2023-04-28T03:27:57.217Z,92727.00
2023-04-28T03:28:57.248Z,92729.00
2023-04-28T03:29:57.275Z,92727.00
2023-04-28T03:30:57.287Z,92727.00
2023-04-28T03:31:57.366Z,92729.00
2023-04-28T03:32:57.381Z,92729.00
2023-04-28T03:33:57.354Z,92731.00
2023-04-28T03:34:57.369Z,92731.00
2023-04-28T03:35:57.383Z,92731.00
2023-04-28T03:36:57.368Z,92741.00
2023-04-28T03:37:57.372Z,92743.00
2023-04-28T03:38:57.403Z,92747.00
2023-04-28T03:39:57.411Z,92751.00
2023-04-28T03:40:57.426Z,92753.00
2023-04-28T03:41:57.440Z,92757.00
2023-04-28T03:42:57.456Z,92763.00
2023-04-28T03:43:57.446Z,92765.00
2023-04-28T03:44:57.467Z,92767.00
2023-04-28T03:45:57.499Z,92767.00
2023-04-28T03:46:57.476Z,92770.00
2023-04-28T03:47:57.503Z,92769.00
2023-04-28T03:48:57.498Z,92767.00
2023-04-28T03:49:57.520Z,92770.00
2023-04-28T03:50:57.508Z,92770.00
2023-04-28T03:51:57.537Z,92774.00
2023-04-28T03:52:57.553Z,92776.00
2023-04-28T03:53:57.583Z,92780.00
2023-04-28T03:54:57.600Z,92784.00
2023-04-28T03:55:57.583Z,92786.00
2023-04-28T03:56:57.625Z,92790.00
2023-04-28T03:57:57.624Z,92792.00
2023-04-28T03:58:57.647Z,92794.00
2023-04-28T03:59:57.638Z,92802.00
2023-04-28T04:00:57.662Z,92800.00
2023-04-28T04:01:57.663Z,92800.00
2023-04-28T04:02:57.981Z,92800.00
2023-04-28T04:03:57.851Z,92798.00
2023-04-28T04:04:57.817Z,92798.00
2023-04-28T04:05:57.661Z,92794.00
2023-04-28T04:06:57.686Z,92794.00
2023-04-28T04:07:57.710Z,92800.00
2023-04-28T04:08:57.735Z,92800.00
2023-04-28T04:09:57.731Z,92802.00
2023-04-28T04:10:57.741Z,92802.00
2023-04-28T04:11:57.765Z,92800.00
2023-04-28T04:12:57.747Z,92802.00
2023-04-28T04:13:57.914Z,92802.00
2023-04-28T04:14:57.800Z,92804.00
2023-04-28T04:15:57.898Z,92806.00
2023-04-28T04:16:57.868Z,92804.00
2023-04-28T04:17:57.894Z,92804.00
2023-04-28T04:18:57.880Z,92804.00
2023-04-28T04:19:57.893Z,92806.00
2023-04-28T04:20:57.929Z,92804.00
2023-04-28T04:21:57.963Z,92808.00
2023-04-28T04:22:57.995Z,92806.00
2023-04-28T04:23:58.012Z,92808.00
2023-04-28T04:24:58.116Z,92812.00
2023-04-28T04:25:58.088Z,92812.00
2023-04-28T04:26:58.114Z,92814.00
2023-04-28T04:27:58.110Z,92816.00
2023-04-28T04:28:58.268Z,92819.00
2023-04-28T04:29:58.124Z,92819.00
2023-04-28T04:30:58.164Z,92816.00
2023-04-28T04:31:58.168Z,92814.00
2023-04-28T04:32:58.203Z,92810.00
2023-04-28T04:33:58.253Z,92812.00
2023-04-28T04:34:58.204Z,92810.00
2023-04-28T04:35:58.247Z,92806.00
2023-04-28T04:36:58.280Z,92806.00
2023-04-28T04:37:58.264Z,92810.00
2023-04-28T04:38:58.280Z,92806.00
2023-04-28T04:39:58.299Z,92808.00
2023-04-28T04:40:58.308Z,92806.00
2023-04-28T04:41:58.343Z,92806.00
2023-04-28T04:42:58.355Z,92808.00
2023-04-28T04:43:58.364Z,92806.00
2023-04-28T04:44:58.367Z,92810.00
2023-04-28T04:45:58.432Z,92808.00
2023-04-28T04:46:58.442Z,92808.00
2023-04-28T04:47:58.495Z,92812.00
2023-04-28T04:48:58.410Z,92810.00
2023-04-28T04:49:58.428Z,92812.00
2023-04-28T04:50:58.467Z,92814.00
2023-04-28T04:51:58.462Z,92814.00
2023-04-28T04:52:58.490Z,92810.00
2023-04-28T04:53:58.488Z,92808.00
2023-04-28T04:54:58.485Z,92810.00
2023-04-28T04:55:58.496Z,92806.00
2023-04-28T04:56:58.497Z,92808.00
2023-04-28T04:57:58.490Z,92810.00
2023-04-28T04:58:58.487Z,92814.00
2023-04-28T04:59:58.492Z,92814.00
2023-04-28T05:00:58.504Z,92817.00
2023-04-28T05:01:58.549Z,92821.00
2023-04-28T05:02:58.614Z,92821.00
2023-04-28T05:03:58.669Z,92821.00
2023-04-28T05:05:08.251Z,92821.00
2023-04-28T05:05:59.521Z,92819.00
2023-04-28T05:06:58.507Z,92823.00
2023-04-28T05:07:58.474Z,92823.00
2023-04-28T05:08:58.457Z,92825.00
2023-04-28T05:09:58.441Z,92823.00
2023-04-28T05:10:58.425Z,92829.00
2023-04-28T05:11:58.396Z,92831.00
2023-04-28T05:12:58.380Z,92839.00
2023-04-28T05:13:58.355Z,92837.00
2023-04-28T05:14:58.394Z,92837.00
2023-04-28T05:15:58.523Z,92835.00
2023-04-28T05:16:58.524Z,92831.00
2023-04-28T05:17:58.638Z,92833.00
2023-04-28T05:18:58.572Z,92833.00
2023-04-28T05:19:58.611Z,92835.00
2023-04-28T05:20:58.670Z,92835.00
2023-04-28T05:21:59.653Z,92833.00
2023-04-28T05:22:58.623Z,92829.00
2023-04-28T05:23:59.248Z,92833.00
2023-04-28T05:24:58.608Z,92837.00
2023-04-28T05:25:58.567Z,92839.00
2023-04-28T05:26:58.555Z,92837.00
2023-04-28T05:27:58.521Z,92843.00
2023-04-28T05:28:58.498Z,92845.00
2023-04-28T05:29:58.495Z,92854.00
2023-04-28T05:30:58.500Z,92847.00
2023-04-28T05:31:58.560Z,92854.00
2023-04-28T05:32:58.571Z,92854.00
2023-04-28T05:33:58.579Z,92847.00
2023-04-28T05:34:58.619Z,92843.00
2023-04-28T05:35:58.627Z,92841.00
2023-04-28T05:36:58.653Z,92845.00
2023-04-28T05:37:59.001Z,92854.00
2023-04-28T05:38:58.693Z,92856.00
2023-04-28T05:39:58.694Z,92854.00
2023-04-28T05:40:59.544Z,92854.00
2023-04-28T05:41:58.739Z,92856.00
2023-04-28T05:42:58.678Z,92858.00
2023-04-28T05:43:58.671Z,92860.00
2023-04-28T05:44:58.689Z,92864.00
2023-04-28T05:45:58.716Z,92868.00
2023-04-28T05:46:58.736Z,92870.00
2023-04-28T05:47:58.732Z,92872.00
2023-04-28T05:48:58.732Z,92874.00
2023-04-28T05:49:58.734Z,92876.00
2023-04-28T05:50:58.714Z,92876.00
2023-04-28T05:51:58.721Z,92876.00
2023-04-28T05:52:58.708Z,92878.00
2023-04-28T05:53:58.717Z,92878.00
2023-04-28T05:54:58.698Z,92878.00
2023-04-28T05:55:58.703Z,92880.00
2023-04-28T05:57:00.834Z,92878.00
2023-04-28T05:57:58.702Z,92882.00
2023-04-28T05:58:58.678Z,92882.00
2023-04-28T05:59:58.665Z,92880.00
2023-04-28T06:00:58.635Z,92882.00
2023-04-28T06:01:58.692Z,92882.00
2023-04-28T06:02:58.818Z,92886.00
2023-04-28T06:03:58.780Z,92884.00
2023-04-28T06:04:58.928Z,92884.00
2023-04-28T06:05:58.655Z,92884.00
2023-04-28T06:06:58.540Z,92886.00
2023-04-28T06:07:58.607Z,92886.00
2023-04-28T06:08:58.515Z,92890.00
2023-04-28T06:09:58.485Z,92890.00
2023-04-28T06:10:58.449Z,92897.00
2023-04-28T06:11:59.512Z,92893.00
2023-04-28T06:12:58.420Z,92897.00
2023-04-28T06:13:58.403Z,92897.00
2023-04-28T06:14:58.396Z,92897.00
2023-04-28T06:15:58.445Z,92893.00
2023-04-28T06:16:58.361Z,92893.00
2023-04-28T06:17:58.396Z,92893.00
2023-04-28T06:18:58.323Z,92892.00
2023-04-28T06:19:58.312Z,92892.00
2023-04-28T06:20:58.281Z,92892.00
2023-04-28T06:21:58.281Z,92892.00
2023-04-28T06:22:58.266Z,92890.00
2023-04-28T06:23:58.257Z,92892.00
2023-04-28T06:24:58.231Z,92892.00
2023-04-28T06:25:58.214Z,92893.00
2023-04-28T06:26:58.183Z,92895.00
2023-04-28T06:27:58.216Z,92895.00
2023-04-28T06:28:58.160Z,92897.00
2023-04-28T06:29:58.133Z,92893.00
2023-04-28T06:30:58.144Z,92897.00
2023-04-28T06:31:58.093Z,92901.00
2023-04-28T06:32:58.087Z,92903.00
2023-04-28T06:33:58.038Z,92901.00
2023-04-28T06:34:58.721Z,92899.00
2023-04-28T06:35:58.012Z,92901.00
2023-04-28T06:36:57.972Z,92897.00
2023-04-28T06:37:57.931Z,92895.00
2023-04-28T06:38:57.900Z,92897.00
2023-04-28T06:39:57.869Z,92895.00
2023-04-28T06:40:57.843Z,92895.00
2023-04-28T06:41:57.805Z,92897.00
2023-04-28T06:42:57.780Z,92897.00
2023-04-28T06:43:58.567Z,92897.00
2023-04-28T06:44:57.717Z,92895.00
2023-04-28T06:45:57.715Z,92897.00
2023-04-28T06:46:57.702Z,92897.00
2023-04-28T06:47:57.685Z,92897.00
2023-04-28T06:48:57.639Z,92901.00
2023-04-28T06:49:57.653Z,92905.00
2023-04-28T06:50:57.634Z,92905.00
2023-04-28T06:51:57.654Z,92909.00
2023-04-28T06:52:57.636Z,92909.00
2023-04-28T06:53:57.649Z,92911.00
2023-04-28T06:54:57.668Z,92913.00
2023-04-28T06:55:57.629Z,92915.00
2023-04-28T06:56:57.634Z,92913.00
2023-04-28T06:57:57.640Z,92917.00
2023-04-28T06:58:57.633Z,92919.00
2023-04-28T06:59:57.622Z,92917.00
2023-04-28T07:00:57.620Z,92917.00
2023-04-28T07:01:57.703Z,92915.00
2023-04-28T07:02:57.739Z,92917.00
2023-04-28T07:03:57.815Z,92915.00
2023-04-28T07:04:57.592Z,92915.00
2023-04-28T07:05:57.574Z,92917.00
2023-04-28T07:06:57.575Z,92915.00
2023-04-28T07:07:57.546Z,92917.00
2023-04-28T07:08:57.542Z,92915.00
2023-04-28T07:09:57.526Z,92915.00
2023-04-28T07:10:57.516Z,92913.00
2023-04-28T07:11:57.498Z,92917.00
2023-04-28T07:12:57.482Z,92923.00
2023-04-28T07:13:57.473Z,92919.00
2023-04-28T07:14:57.462Z,92919.00
2023-04-28T07:15:57.523Z,92923.00
2023-04-28T07:16:57.452Z,92925.00
2023-04-28T07:17:57.471Z,92927.00
2023-04-28T07:18:57.418Z,92925.00
2023-04-28T07:19:57.416Z,92925.00
2023-04-28T07:20:57.405Z,92929.00
2023-04-28T07:21:57.398Z,92927.00
2023-04-28T07:22:57.403Z,92933.00
2023-04-28T07:23:58.182Z,92929.00
2023-04-28T07:24:57.377Z,92931.00
2023-04-28T07:25:57.354Z,92933.00
2023-04-28T07:26:57.358Z,92937.00
2023-04-28T07:27:58.255Z,92937.00
2023-04-28T07:28:57.400Z,92939.00
2023-04-28T07:29:57.332Z,92939.00
2023-04-28T07:30:58.307Z,92939.00
2023-04-28T07:31:57.354Z,92939.00
2023-04-28T07:32:57.392Z,92939.00
2023-04-28T07:33:57.292Z,92941.00
2023-04-28T07:34:58.318Z,92943.00
2023-04-28T07:35:57.247Z,92943.00
2023-04-28T07:36:58.386Z,92943.00
2023-04-28T07:37:57.200Z,92941.00
2023-04-28T07:38:57.170Z,92943.00
2023-04-28T07:39:57.150Z,92943.00
2023-04-28T07:40:57.175Z,92943.00
2023-04-28T07:41:57.103Z,92943.00
2023-04-28T07:42:58.684Z,92945.00
2023-04-28T07:43:57.069Z,92945.00
2023-04-28T07:44:57.075Z,92945.00
2023-04-28T07:45:57.040Z,92948.00
2023-04-28T07:46:56.989Z,92948.00
2023-04-28T07:47:56.985Z,92952.00
2023-04-28T07:48:56.907Z,92950.00
2023-04-28T07:49:56.883Z,92950.00
2023-04-28T07:50:56.851Z,92950.00
2023-04-28T07:51:56.823Z,92948.00
2023-04-28T07:52:56.963Z,92948.00
2023-04-28T07:53:56.777Z,92948.00
2023-04-28T07:54:57.606Z,92947.00
2023-04-28T07:55:56.710Z,92943.00
2023-04-28T07:56:56.699Z,92948.00
2023-04-28T07:57:56.676Z,92947.00
2023-04-28T07:58:57.593Z,92947.00
2023-04-28T07:59:56.613Z,92947.00
2023-04-28T08:00:56.576Z,92947.00
2023-04-28T08:01:56.587Z,92947.00
2023-04-28T08:02:57.284Z,92943.00
2023-04-28T08:03:57.984Z,92943.00
2023-04-28T08:04:56.908Z,92941.00
2023-04-28T08:05:56.650Z,92943.00
2023-04-28T08:06:56.531Z,92943.00
2023-04-28T08:07:56.523Z,92945.00
2023-04-28T08:08:56.496Z,92943.00
2023-04-28T08:09:56.500Z,92941.00
2023-04-28T08:10:56.501Z,92939.00
2023-04-28T08:11:56.477Z,92937.00
2023-04-28T08:12:56.480Z,92935.00
2023-04-28T08:13:57.101Z,92939.00
2023-04-28T08:14:56.426Z,92941.00
2023-04-28T08:15:56.455Z,92937.00
2023-04-28T08:16:56.417Z,92943.00
2023-04-28T08:17:56.450Z,92945.00
2023-04-28T08:18:56.440Z,92939.00
2023-04-28T08:19:56.368Z,92939.00
2023-04-28T08:20:56.342Z,92933.00
2023-04-28T08:21:56.402Z,92935.00
2023-04-28T08:22:56.328Z,92933.00
2023-04-28T08:23:56.283Z,92935.00
2023-04-28T08:24:56.258Z,92935.00
2023-04-28T08:25:56.243Z,92939.00
2023-04-28T08:26:56.220Z,92933.00
2023-04-28T08:27:57.234Z,92935.00
2023-04-28T08:28:56.204Z,92937.00
2023-04-28T08:29:56.174Z,92939.00
2023-04-28T08:30:56.189Z,92937.00
2023-04-28T08:31:56.123Z,92939.00
2023-04-28T08:32:56.194Z,92941.00
2023-04-28T08:33:56.148Z,92943.00
2023-04-28T08:34:56.141Z,92939.00
2023-04-28T08:35:56.154Z,92939.00
2023-04-28T08:36:56.140Z,92941.00
2023-04-28T08:37:56.137Z,92939.00
2023-04-28T08:38:56.129Z,92939.00
2023-04-28T08:39:56.099Z,92939.00
2023-04-28T08:40:56.082Z,92937.00
2023-04-28T08:41:56.078Z,92935.00
2023-04-28T08:42:56.081Z,92931.00
2023-04-28T08:43:56.045Z,92927.00
2023-04-28T08:44:56.085Z,92921.00
2023-04-28T08:45:56.031Z,92921.00
2023-04-28T08:46:56.150Z,92923.00
2023-04-28T08:47:58.013Z,92927.00
2023-04-28T08:48:56.070Z,92929.00
2023-04-28T08:49:56.108Z,92933.00
2023-04-28T08:50:56.347Z,92931.00
2023-04-28T08:51:56.099Z,92931.00
2023-04-28T08:52:56.051Z,92929.00
2023-04-28T08:54:55.973Z,92925.00
2023-04-28T08:55:55.959Z,92923.00
2023-04-28T08:56:55.892Z,92921.00
2023-04-28T08:57:55.874Z,92919.00
2023-04-28T08:58:55.849Z,92913.00
2023-04-28T08:59:56.615Z,92913.00
2023-04-28T09:00:55.928Z,92907.00
2023-04-28T09:01:55.803Z,92907.00
2023-04-28T09:02:55.784Z,92909.00
2023-04-28T09:03:55.752Z,92907.00
2023-04-28T09:04:55.817Z,92911.00
2023-04-28T09:05:55.598Z,92913.00
2023-04-28T09:06:55.530Z,92917.00
2023-04-28T09:07:55.581Z,92919.00
2023-04-28T09:08:55.488Z,92919.00
2023-04-28T09:09:55.573Z,92919.00
2023-04-28T09:10:55.378Z,92913.00
2023-04-28T09:11:56.212Z,92915.00
2023-04-28T09:12:55.317Z,92917.00
2023-04-28T09:13:56.701Z,92915.00
2023-04-28T09:14:55.238Z,92917.00
2023-04-28T09:15:55.386Z,92917.00
2023-04-28T09:16:55.373Z,92923.00
2023-04-28T09:17:55.154Z,92925.00
2023-04-28T09:18:55.072Z,92929.00
2023-04-28T09:19:55.036Z,92931.00
2023-04-28T09:20:55.012Z,92933.00
2023-04-28T09:21:54.993Z,92939.00
2023-04-28T09:22:55.767Z,92941.00
2023-04-28T09:23:54.896Z,92935.00
2023-04-28T09:24:56.236Z,92939.00
2023-04-28T09:25:55.628Z,92941.00
2023-04-28T09:26:55.799Z,92939.00
2023-04-28T09:27:54.775Z,92941.00
2023-04-28T09:28:54.776Z,92943.00
2023-04-28T09:29:54.751Z,92943.00
2023-04-28T09:30:54.723Z,92943.00
2023-04-28T09:31:54.762Z,92945.00
2023-04-28T09:32:54.694Z,92947.00
2023-04-28T09:33:54.657Z,92947.00
2023-04-28T09:34:54.652Z,92947.00
2023-04-28T09:35:54.669Z,92948.00
2023-04-28T09:36:54.674Z,92950.00
2023-04-28T09:37:54.611Z,92954.00
2023-04-28T09:38:55.197Z,92952.00
2023-04-28T09:39:54.564Z,92952.00
2023-04-28T09:40:54.561Z,92950.00
2023-04-28T09:41:54.533Z,92950.00
2023-04-28T09:42:54.531Z,92941.00
2023-04-28T09:43:54.506Z,92943.00
2023-04-28T09:44:54.485Z,92943.00
2023-04-28T09:45:54.554Z,92945.00
2023-04-28T09:46:54.464Z,92948.00
2023-04-28T09:47:54.528Z,92950.00
2023-04-28T09:48:54.444Z,92954.00
2023-04-28T09:49:54.437Z,92962.00
2023-04-28T09:50:54.464Z,92960.00
2023-04-28T09:51:54.444Z,92954.00
2023-04-28T09:52:54.443Z,92948.00
2023-04-28T09:53:55.186Z,92945.00
2023-04-28T09:54:54.460Z,92948.00
2023-04-28T09:55:54.466Z,92954.00
2023-04-28T09:56:54.464Z,92954.00
2023-04-28T09:57:54.469Z,92952.00
2023-04-28T09:58:54.475Z,92948.00
2023-04-28T09:59:54.498Z,92948.00
2023-04-28T10:00:54.776Z,92943.00
2023-04-28T10:01:54.596Z,92945.00
2023-04-28T10:02:54.603Z,92947.00
2023-04-28T10:03:54.671Z,92947.00
2023-04-28T10:04:54.824Z,92941.00
2023-04-28T10:05:54.544Z,92941.00
2023-04-28T10:06:54.558Z,92941.00
2023-04-28T10:07:54.575Z,92937.00
2023-04-28T10:08:54.584Z,92937.00
2023-04-28T10:09:54.615Z,92933.00
2023-04-28T10:10:54.736Z,92933.00
2023-04-28T10:11:54.613Z,92937.00
2023-04-28T10:12:54.648Z,92937.00
2023-04-28T10:13:54.678Z,92933.00
2023-04-28T10:14:54.684Z,92931.00
2023-04-28T10:15:54.789Z,92927.00
2023-04-28T10:16:54.770Z,92923.00
2023-04-28T10:17:54.811Z,92923.00
2023-04-28T10:18:55.659Z,92925.00
2023-04-28T10:19:54.821Z,92927.00
2023-04-28T10:20:54.812Z,92923.00
2023-04-28T10:21:54.839Z,92927.00
2023-04-28T10:22:55.229Z,92921.00
2023-04-28T10:23:54.880Z,92921.00
2023-04-28T10:24:56.950Z,92923.00
2023-04-28T10:25:54.934Z,92921.00
2023-04-28T10:26:54.948Z,92921.00
2023-04-28T10:27:54.994Z,92919.00
2023-04-28T10:28:55.015Z,92917.00
2023-04-28T10:29:55.006Z,92919.00
2023-04-28T10:30:55.081Z,92917.00
2023-04-28T10:31:55.008Z,92915.00
2023-04-28T10:32:55.047Z,92915.00
2023-04-28T10:33:55.029Z,92913.00
2023-04-28T10:34:54.988Z,92917.00
2023-04-28T10:35:54.954Z,92919.00
2023-04-28T10:36:55.014Z,92917.00
2023-04-28T10:37:54.918Z,92913.00
2023-04-28T10:38:54.909Z,92913.00
2023-04-28T10:39:54.888Z,92921.00
2023-04-28T10:40:54.931Z,92921.00
2023-04-28T10:41:54.902Z,92923.00
2023-04-28T10:42:54.882Z,92921.00
2023-04-28T10:43:54.887Z,92917.00
2023-04-28T10:44:55.746Z,92913.00
2023-04-28T10:45:57.570Z,92913.00
2023-04-28T10:46:54.914Z,92909.00
2023-04-28T10:47:54.866Z,92907.00
2023-04-28T10:48:54.801Z,92905.00
2023-04-28T10:49:54.749Z,92905.00
2023-04-28T10:50:54.712Z,92907.00
2023-04-28T10:51:54.677Z,92907.00
2023-04-28T10:52:54.638Z,92905.00
2023-04-28T10:53:54.611Z,92903.00
2023-04-28T10:54:54.568Z,92903.00
2023-04-28T10:55:54.607Z,92901.00
2023-04-28T10:56:54.492Z,92901.00
2023-04-28T10:57:54.458Z,92897.00
2023-04-28T10:58:54.428Z,92895.00
2023-04-28T10:59:54.407Z,92892.00
2023-04-28T11:00:54.353Z,92890.00
2023-04-28T11:01:54.325Z,92888.00
2023-04-28T11:02:54.470Z,92882.00
2023-04-28T11:03:54.447Z,92880.00
2023-04-28T11:04:54.504Z,92876.00
2023-04-28T11:05:54.153Z,92874.00
2023-04-28T11:06:54.126Z,92872.00
2023-04-28T11:07:54.092Z,92872.00
2023-04-28T11:08:54.055Z,92874.00
2023-04-28T11:09:54.016Z,92874.00
2023-04-28T11:10:53.985Z,92866.00
2023-04-28T11:11:53.949Z,92870.00
2023-04-28T11:12:53.911Z,92870.00
2023-04-28T11:13:53.868Z,92868.00
2023-04-28T11:14:53.837Z,92862.00
2023-04-28T11:15:53.807Z,92864.00
2023-04-28T11:16:54.059Z,92860.00
2023-04-28T11:17:53.762Z,92862.00
2023-04-28T11:18:55.409Z,92862.00
2023-04-28T11:19:53.640Z,92858.00
2023-04-28T11:20:53.613Z,92856.00
2023-04-28T11:21:53.603Z,92858.00
2023-04-28T11:22:53.638Z,92858.00
2023-04-28T11:23:53.638Z,92860.00
2023-04-28T11:24:54.038Z,92862.00
2023-04-28T11:25:53.643Z,92858.00
2023-04-28T11:26:53.702Z,92858.00
2023-04-28T11:27:53.681Z,92858.00
2023-04-28T11:28:53.693Z,92854.00
2023-04-28T11:29:53.681Z,92856.00
2023-04-28T11:30:54.229Z,92847.00
2023-04-28T11:31:53.668Z,92845.00
2023-04-28T11:32:53.648Z,92847.00
2023-04-28T11:33:53.575Z,92854.00
2023-04-28T11:34:53.562Z,92860.00
2023-04-28T11:35:53.554Z,92864.00
2023-04-28T11:36:54.779Z,92870.00
2023-04-28T11:37:53.545Z,92866.00
2023-04-28T11:38:53.516Z,92864.00
2023-04-28T11:39:53.464Z,92860.00
2023-04-28T11:40:53.455Z,92864.00
2023-04-28T11:41:53.422Z,92860.00
2023-04-28T11:42:53.399Z,92864.00
2023-04-28T11:43:53.444Z,92866.00
2023-04-28T11:44:53.380Z,92870.00
2023-04-28T11:45:53.385Z,92868.00